createdAt,value
2023-02-14T00:00:13.209Z,59.80
2023-02-14T00:03:36.833Z,59.90
2023-02-14T00:07:01.477Z,59.70
2023-02-14T00:10:25.142Z,62.00
2023-02-14T00:14:03.884Z,59.90
2023-02-14T00:17:27.542Z,59.80
2023-02-14T00:20:51.012Z,59.80
2023-02-14T00:24:17.742Z,59.70
2023-02-14T00:27:41.293Z,60.00
2023-02-14T00:31:06.414Z,59.80
2023-02-14T00:34:30.099Z,60.50
2023-02-14T00:38:02.610Z,60.10
2023-02-14T00:41:26.401Z,60.10
2023-02-14T00:44:49.951Z,62.00
2023-02-14T00:48:14.800Z,60.80
2023-02-14T00:51:38.469Z,60.10
2023-02-14T00:55:02.013Z,60.20
2023-02-14T00:58:25.648Z,60.20
2023-02-14T01:01:50.913Z,60.20
2023-02-14T01:05:16.271Z,60.00
2023-02-14T01:08:40.033Z,60.00
2023-02-14T01:12:04.389Z,60.00
2023-02-14T01:15:27.980Z,60.00
2023-02-14T01:18:52.019Z,59.90
2023-02-14T01:22:16.988Z,59.90
2023-02-14T01:33:05.703Z,60.80
2023-02-14T01:36:33.765Z,59.90
2023-02-14T01:39:59.120Z,60.10
2023-02-14T01:43:22.562Z,60.10
2023-02-14T01:46:47.341Z,59.90
2023-02-14T01:50:17.398Z,60.20
2023-02-14T01:53:41.429Z,60.20
2023-02-14T01:57:14.936Z,60.30
2023-02-14T02:01:16.145Z,60.30
2023-02-14T02:04:58.364Z,60.40
2023-02-14T02:08:23.092Z,60.30
2023-02-14T02:11:46.879Z,60.30
2023-02-14T02:15:14.257Z,60.30
2023-02-14T02:19:06.557Z,60.20
2023-02-14T02:23:37.031Z,62.00
2023-02-14T02:27:26.223Z,60.70
2023-02-14T02:31:43.256Z,60.80
2023-02-14T02:35:59.268Z,61.00
2023-02-14T02:39:49.755Z,61.00
2023-02-14T02:43:31.963Z,60.90
2023-02-14T02:47:07.442Z,60.90
2023-02-14T02:50:56.537Z,60.80
2023-02-14T02:54:34.868Z,60.80
2023-02-14T02:58:00.408Z,60.60
2023-02-14T03:01:30.500Z,60.60
2023-02-14T03:04:56.785Z,60.70
2023-02-14T03:08:21.022Z,60.70
2023-02-14T03:12:02.004Z,60.70
2023-02-14T03:15:46.467Z,60.80
2023-02-14T03:19:37.745Z,61.00
2023-02-14T03:23:12.905Z,60.90
2023-02-14T03:26:48.832Z,60.60
2023-02-14T03:30:26.856Z,60.80
2023-02-14T03:34:01.312Z,61.00
2023-02-14T03:37:32.458Z,61.00
2023-02-14T03:41:02.637Z,61.10
2023-02-14T03:44:32.907Z,60.90
2023-02-14T03:48:05.402Z,61.10
2023-02-14T03:51:34.289Z,60.90
2023-02-14T03:55:02.037Z,61.00
2023-02-14T03:58:31.675Z,61.00
2023-02-14T04:02:03.282Z,61.00
2023-02-14T04:05:29.855Z,61.10
2023-02-14T04:08:54.015Z,61.00
2023-02-14T04:12:26.572Z,60.80
2023-02-14T04:15:56.297Z,61.00
2023-02-14T04:19:25.331Z,60.90
2023-02-14T04:22:51.477Z,60.90
2023-02-14T04:26:14.959Z,61.10
2023-02-14T04:29:40.547Z,61.00
2023-02-14T04:33:05.138Z,62.00
2023-02-14T04:36:28.776Z,61.20
2023-02-14T04:39:53.736Z,61.10
2023-02-14T04:43:17.288Z,61.00
2023-02-14T04:46:40.930Z,61.00
2023-02-14T04:50:05.325Z,60.80
2023-02-14T04:53:28.989Z,61.20
2023-02-14T04:56:53.986Z,61.20
2023-02-14T05:00:18.962Z,61.20
2023-02-14T05:03:42.537Z,61.00
2023-02-14T05:07:06.444Z,61.00
2023-02-14T05:10:30.222Z,61.00
2023-02-14T05:13:56.008Z,61.00
2023-02-14T05:17:19.892Z,61.20
2023-02-14T05:20:43.494Z,61.20
2023-02-14T05:24:08.069Z,61.00
2023-02-14T05:27:31.596Z,61.10
2023-02-14T05:30:58.863Z,61.00
2023-02-14T05:34:22.768Z,61.20
2023-02-14T05:37:46.308Z,61.10
2023-02-14T05:41:09.875Z,61.10
2023-02-14T05:44:33.840Z,61.10
2023-02-14T05:47:58.692Z,61.00
2023-02-14T05:51:22.297Z,61.20
2023-02-14T05:54:45.844Z,61.10
2023-02-14T05:58:09.464Z,61.10
2023-02-14T06:01:33.387Z,61.10
2023-02-14T06:04:58.274Z,61.10
2023-02-14T06:08:21.794Z,61.70
2023-02-14T06:11:45.319Z,61.20
2023-02-14T06:15:09.355Z,61.10
2023-02-14T06:18:32.867Z,61.20
2023-02-14T06:21:57.772Z,61.20
2023-02-14T06:25:21.760Z,61.00
2023-02-14T06:28:45.582Z,61.30
2023-02-14T06:32:09.160Z,61.60
2023-02-14T06:35:32.782Z,61.20
2023-02-14T06:38:58.637Z,61.20
2023-02-14T06:42:22.313Z,61.40
2023-02-14T06:45:47.665Z,61.70
2023-02-14T06:49:11.670Z,61.60
2023-02-14T06:52:35.810Z,61.70
2023-02-14T06:56:00.859Z,61.70
2023-02-14T06:59:24.743Z,61.90
2023-02-14T07:02:48.415Z,62.00
2023-02-14T07:06:12.788Z,62.10
2023-02-14T07:09:36.431Z,62.20
2023-02-14T07:13:02.475Z,64.20
2023-02-14T07:16:26.226Z,62.20
2023-02-14T07:19:49.915Z,62.30
2023-02-14T07:23:13.587Z,62.40
2023-02-14T07:26:37.276Z,62.50
2023-02-14T07:30:02.400Z,62.60
2023-02-14T07:33:26.677Z,62.60
2023-02-14T07:36:50.440Z,62.70
2023-02-14T07:40:15.462Z,62.70
2023-02-14T07:43:39.806Z,62.70
2023-02-14T07:47:04.758Z,63.00
2023-02-14T07:50:28.727Z,62.90
2023-02-14T07:53:52.214Z,63.20
2023-02-14T07:57:15.708Z,63.10
2023-02-14T08:00:39.899Z,63.20
2023-02-14T08:04:05.243Z,63.90
2023-02-14T08:07:29.227Z,63.50
2023-02-14T08:10:52.843Z,63.50
2023-02-14T08:14:16.581Z,63.60
2023-02-14T08:17:40.277Z,63.60
2023-02-14T08:21:06.252Z,63.70
2023-02-14T08:24:30.328Z,64.00
2023-02-14T08:27:55.223Z,64.00
2023-02-14T08:31:35.013Z,64.70
2023-02-14T08:34:59.463Z,68.00
2023-02-14T08:38:24.395Z,71.80
2023-02-14T08:41:47.935Z,71.80
2023-02-14T08:45:11.875Z,69.80
2023-02-14T08:48:39.104Z,68.10
2023-02-14T08:52:02.942Z,66.60
2023-02-14T08:55:28.676Z,65.60
2023-02-14T08:58:54.821Z,65.30
2023-02-14T09:02:18.356Z,65.40
2023-02-14T09:05:41.933Z,65.30
2023-02-14T09:09:06.340Z,64.70
2023-02-14T09:12:31.372Z,64.10
2023-02-14T09:15:55.112Z,63.80
2023-02-14T09:19:18.788Z,63.20
2023-02-14T09:22:42.456Z,63.20
2023-02-14T09:26:10.978Z,63.20
2023-02-14T09:29:36.156Z,64.30
2023-02-14T09:33:00.256Z,63.20
2023-02-14T09:36:41.463Z,63.20
2023-02-14T09:40:06.734Z,63.40
2023-02-14T09:43:40.602Z,63.50
2023-02-14T09:47:18.654Z,63.90
2023-02-14T09:50:49.929Z,63.70
2023-02-14T09:54:18.887Z,63.90
2023-02-14T09:57:58.244Z,64.00
2023-02-14T10:01:28.395Z,64.10
2023-02-14T10:05:08.082Z,64.30
2023-02-14T10:08:52.162Z,64.60
2023-02-14T10:12:27.455Z,64.60
2023-02-14T10:16:03.087Z,64.30
2023-02-14T10:19:35.576Z,64.40
2023-02-14T10:23:10.424Z,64.90
2023-02-14T10:26:40.117Z,67.10
2023-02-14T10:30:13.922Z,71.60
2023-02-14T10:33:41.637Z,75.60
2023-02-14T10:37:26.434Z,78.00
2023-02-14T10:41:23.558Z,78.30
2023-02-14T10:44:59.955Z,78.70
2023-02-14T10:48:38.700Z,79.30
2023-02-14T10:52:16.629Z,77.30
2023-02-14T10:55:50.132Z,76.00
2023-02-14T10:59:25.446Z,74.80
2023-02-14T11:02:55.139Z,74.10
2023-02-14T11:06:18.895Z,72.70
2023-02-14T11:09:42.534Z,71.60
2023-02-14T11:13:34.679Z,70.90
2023-02-14T11:17:01.875Z,67.30
2023-02-14T11:20:30.467Z,68.70
2023-02-14T11:23:54.528Z,67.60
2023-02-14T11:27:21.099Z,66.10
2023-02-14T11:30:47.896Z,65.00
2023-02-14T11:34:40.003Z,64.20
2023-02-14T11:38:07.340Z,61.90
2023-02-14T11:41:49.818Z,62.80
2023-02-14T11:45:34.985Z,60.30
2023-02-14T11:49:01.483Z,59.80
2023-02-14T11:52:29.617Z,60.40
2023-02-14T11:55:56.032Z,58.80
2023-02-14T11:59:32.544Z,58.10
2023-02-14T12:02:58.471Z,57.00
2023-02-14T12:06:27.637Z,56.80
2023-02-14T12:10:18.863Z,56.50
2023-02-14T12:13:42.442Z,55.80
2023-02-14T12:17:22.420Z,56.80
2023-02-14T12:20:56.660Z,56.50
2023-02-14T12:24:31.444Z,57.10
2023-02-14T12:28:04.221Z,57.00
2023-02-14T12:31:27.925Z,56.80
2023-02-14T12:34:54.397Z,56.60
2023-02-14T12:38:35.894Z,56.70
2023-02-14T12:42:13.736Z,56.70
2023-02-14T12:46:01.663Z,56.70
2023-02-14T12:50:14.283Z,56.30
2023-02-14T12:54:02.394Z,56.60
2023-02-14T12:57:43.157Z,56.50
2023-02-14T13:01:49.328Z,56.50
2023-02-14T13:05:25.299Z,56.00
2023-02-14T13:09:10.719Z,56.10
2023-02-14T13:12:44.797Z,56.30
2023-02-14T13:16:23.222Z,56.20
2023-02-14T13:20:00.361Z,56.20
2023-02-14T13:23:30.681Z,56.00
2023-02-14T13:27:01.564Z,56.00
2023-02-14T13:30:32.100Z,56.00
2023-02-14T13:34:02.865Z,56.00
2023-02-14T13:37:30.758Z,56.00
2023-02-14T13:40:57.072Z,56.00
2023-02-14T13:44:47.592Z,56.00
2023-02-14T13:48:16.171Z,55.70
2023-02-14T13:51:49.623Z,55.80
2023-02-14T13:55:21.095Z,55.90
2023-02-14T13:58:51.175Z,55.70
2023-02-14T14:02:42.732Z,55.70
2023-02-14T14:06:08.300Z,55.50
2023-02-14T14:10:03.194Z,55.80
2023-02-14T14:14:03.573Z,55.50
2023-02-14T14:17:27.751Z,55.60
2023-02-14T14:20:53.076Z,55.70
2023-02-14T14:24:24.281Z,55.60
2023-02-14T14:27:50.037Z,55.60
2023-02-14T14:31:15.479Z,55.60
2023-02-14T14:34:39.305Z,55.40
2023-02-14T14:38:03.198Z,55.40
2023-02-14T14:41:32.660Z,55.30
2023-02-14T14:45:01.951Z,55.20
2023-02-14T14:48:32.479Z,55.30
2023-02-14T14:51:58.576Z,55.30
2023-02-14T14:55:26.408Z,55.30
2023-02-14T14:58:50.682Z,55.30
2023-02-14T15:02:27.900Z,55.40
2023-02-14T15:05:53.101Z,55.30
2023-02-14T15:09:23.766Z,55.30
2023-02-14T15:13:05.403Z,55.30
2023-02-14T15:16:36.320Z,55.20
2023-02-14T15:20:08.136Z,55.40
2023-02-14T15:23:33.064Z,55.30
2023-02-14T15:26:57.690Z,55.20
2023-02-14T15:30:29.220Z,55.30
2023-02-14T15:33:53.354Z,55.30
2023-02-14T15:37:22.068Z,55.20
2023-02-14T15:40:46.194Z,55.30
2023-02-14T15:44:21.985Z,55.30
2023-02-14T15:47:50.111Z,55.50
2023-02-14T15:51:21.492Z,55.30
2023-02-14T15:54:48.675Z,55.40
2023-02-14T15:58:21.268Z,55.40
2023-02-14T16:01:53.399Z,55.40
2023-02-14T16:05:21.903Z,55.50
2023-02-14T16:08:55.359Z,55.40
2023-02-14T16:12:33.086Z,55.40
2023-02-14T16:16:02.715Z,55.50
2023-02-14T16:19:36.657Z,55.30
2023-02-14T16:23:27.950Z,55.30
2023-02-14T16:26:51.671Z,55.50
2023-02-14T16:30:21.590Z,55.10
2023-02-14T16:33:46.007Z,55.40
2023-02-14T16:37:20.860Z,55.30
2023-02-14T16:40:47.546Z,55.50
2023-02-14T16:44:15.120Z,55.50
2023-02-14T16:47:40.454Z,55.50
2023-02-14T16:51:04.278Z,56.20
2023-02-14T16:54:28.846Z,56.40
2023-02-14T16:57:54.530Z,56.60
2023-02-14T17:01:18.595Z,56.60
2023-02-14T17:04:44.273Z,56.60
2023-02-14T17:08:12.102Z,56.50
2023-02-14T17:11:39.483Z,56.70
2023-02-14T17:15:10.282Z,56.80
2023-02-14T17:18:37.172Z,56.90
2023-02-14T17:22:04.531Z,56.80
2023-02-14T17:25:28.238Z,57.40
2023-02-14T17:28:52.014Z,56.80
2023-02-14T17:32:15.895Z,56.80
2023-02-14T17:35:39.868Z,56.70
2023-02-14T17:39:06.619Z,56.70
2023-02-14T17:42:32.525Z,56.80
2023-02-14T17:45:56.721Z,56.90
2023-02-14T17:49:20.524Z,56.70
2023-02-14T17:52:44.983Z,56.90
2023-02-14T17:56:14.602Z,57.00
2023-02-14T17:59:38.348Z,57.30
2023-02-14T18:03:02.073Z,57.20
2023-02-14T18:06:26.729Z,57.40
2023-02-14T18:09:50.300Z,57.60
2023-02-14T18:13:15.268Z,57.30
2023-02-14T18:16:40.324Z,57.30
2023-02-14T18:20:05.306Z,57.40
2023-02-14T18:23:31.339Z,57.40
2023-02-14T18:26:55.411Z,57.60
2023-02-14T18:30:20.860Z,57.50
2023-02-14T18:33:45.805Z,57.70
2023-02-14T18:37:13.843Z,57.70
2023-02-14T18:40:38.166Z,57.70
2023-02-14T18:44:02.244Z,59.70
2023-02-14T18:47:27.355Z,57.70
2023-02-14T18:50:52.785Z,57.70
2023-02-14T18:54:17.046Z,57.70
2023-02-14T18:57:41.245Z,57.70
2023-02-14T19:01:09.909Z,57.90
2023-02-14T19:04:34.919Z,58.00
2023-02-14T19:08:00.365Z,57.80
2023-02-14T19:11:29.449Z,57.90
2023-02-14T19:14:56.144Z,58.00
2023-02-14T19:18:20.355Z,58.00
2023-02-14T19:21:45.592Z,57.80
2023-02-14T19:25:10.137Z,57.90
2023-02-14T19:28:33.750Z,58.60
2023-02-14T19:31:59.281Z,58.00
2023-02-14T19:35:23.231Z,58.10
2023-02-14T19:38:52.581Z,58.40
2023-02-14T19:42:16.415Z,58.50
2023-02-14T19:45:40.146Z,58.30
2023-02-14T19:49:04.892Z,58.40
2023-02-14T19:52:29.480Z,58.60
2023-02-14T19:55:54.510Z,58.50
2023-02-14T19:59:22.543Z,58.50
2023-02-14T20:02:48.221Z,58.40
2023-02-14T20:06:12.217Z,58.70
2023-02-14T20:09:37.573Z,58.40
2023-02-14T20:13:02.686Z,58.50
2023-02-14T20:16:29.163Z,58.50
2023-02-14T20:19:52.830Z,58.60
2023-02-14T20:23:16.654Z,58.50
2023-02-14T20:26:41.638Z,58.60
2023-02-14T20:30:09.131Z,58.60
2023-02-14T20:33:33.287Z,58.80
2023-02-14T20:36:59.203Z,58.50
2023-02-14T20:40:23.536Z,58.60
2023-02-14T20:43:47.438Z,58.70
2023-02-14T20:47:12.663Z,58.50
2023-02-14T20:50:36.386Z,58.70
2023-02-14T20:54:00.145Z,58.60
2023-02-14T20:57:23.987Z,58.60
2023-02-14T21:00:48.897Z,58.70
2023-02-14T21:04:14.411Z,58.70
2023-02-14T21:07:38.994Z,58.70
2023-02-14T21:11:03.582Z,58.80
2023-02-14T21:14:27.473Z,58.80
2023-02-14T21:17:51.316Z,58.70
2023-02-14T21:21:21.054Z,58.80
2023-02-14T21:24:47.937Z,59.40
2023-02-14T21:28:11.982Z,59.10
2023-02-14T21:31:36.944Z,59.20
2023-02-14T21:35:01.254Z,59.30
2023-02-14T21:38:26.311Z,59.10
2023-02-14T21:41:50.880Z,59.20
2023-02-14T21:45:32.542Z,59.30
2023-02-14T21:49:15.407Z,59.60
2023-02-14T21:52:39.271Z,59.60
2023-02-14T21:56:10.541Z,59.60
2023-02-14T21:59:34.596Z,59.90
2023-02-14T22:02:58.302Z,59.60
2023-02-14T22:06:23.267Z,59.70
2023-02-14T22:09:47.734Z,59.80
2023-02-14T22:13:12.863Z,59.70
2023-02-14T22:16:38.084Z,59.50
2023-02-14T22:20:02.181Z,59.70
2023-02-14T22:23:28.879Z,59.90
2023-02-14T22:26:53.116Z,59.50
2023-02-14T22:30:18.430Z,59.40
2023-02-14T22:33:42.391Z,59.50
2023-02-14T22:37:06.102Z,60.00
2023-02-14T22:40:29.950Z,59.80
2023-02-14T22:43:54.596Z,59.40
2023-02-14T22:47:19.676Z,59.60
2023-02-14T22:50:43.460Z,60.00
2023-02-14T22:54:12.239Z,59.50
2023-02-14T22:57:36.003Z,59.60
2023-02-14T23:00:59.769Z,59.50
2023-02-14T23:04:26.581Z,59.80
2023-02-14T23:07:50.183Z,59.80
2023-02-14T23:11:18.106Z,59.60
2023-02-14T23:14:59.456Z,59.90
2023-02-14T23:18:40.671Z,59.70
2023-02-14T23:22:09.413Z,59.70
2023-02-14T23:25:33.170Z,59.90
2023-02-14T23:28:56.940Z,59.90
2023-02-14T23:32:20.797Z,59.80
2023-02-14T23:35:44.490Z,59.80
2023-02-14T23:39:10.008Z,59.80
2023-02-14T23:42:34.018Z,59.90
2023-02-14T23:46:00.958Z,59.70
2023-02-14T23:49:26.882Z,60.50
2023-02-14T23:52:50.495Z,60.00
2023-02-14T23:56:15.426Z,59.70
2023-02-14T23:59:39.350Z,59.90
